sensor_id;sensor_type;location;lat;lon;timestamp;pressure;altitude;pressure_sealevel;temperature;humidity
78843;BME280;70542;53.774;-0.352;2024-01-15T00:01:07;100900;;;0;54
78843;BME280;70542;53.774;-0.352;2024-01-15T00:06:56;100890;;;-1;54
78843;BME280;70542;53.774;-0.352;2024-01-15T00:12:36;100890;;;-2;55
78843;BME280;70542;53.774;-0.352;2024-01-15T00:18:15;100890;;;-1;55
78843;BME280;70542;53.774;-0.352;2024-01-15T00:23:59;100880;;;-1;54
78843;BME280;70542;53.774;-0.352;2024-01-15T00:29:37;100870;;;-1;55
78843;BME280;70542;53.774;-0.352;2024-01-15T00:35:16;100870;;;-1;54
78843;BME280;70542;53.774;-0.352;2024-01-15T00:41:01;100850;;;0;52
78843;BME280;70542;53.774;-0.352;2024-01-15T00:46:43;100840;;;0;52
78843;BME280;70542;53.774;-0.352;2024-01-15T00:52:27;100840;;;-1;53
78843;BME280;70542;53.774;-0.352;2024-01-15T00:58:06;100840;;;-1;52
78843;BME280;70542;53.774;-0.352;2024-01-15T01:03:45;100840;;;-1;53
78843;BME280;70542;53.774;-0.352;2024-01-15T01:09:24;100840;;;-1;53
78843;BME280;70542;53.774;-0.352;2024-01-15T01:15:04;100840;;;-1;52
78843;BME280;70542;53.774;-0.352;2024-01-15T01:20:43;100840;;;-2;53
78843;BME280;70542;53.774;-0.352;2024-01-15T01:26:23;100850;;;-1;52
78843;BME280;70542;53.774;-0.352;2024-01-15T01:32:02;100850;;;-1;52
78843;BME280;70542;53.774;-0.352;2024-01-15T01:37:45;100850;;;-2;54
78843;BME280;70542;53.774;-0.352;2024-01-15T01:43:25;100840;;;-1;52
78843;BME280;70542;53.774;-0.352;2024-01-15T01:49:04;100840;;;-1;51
78843;BME280;70542;53.774;-0.352;2024-01-15T01:54:49;100830;;;-2;53
78843;BME280;70542;53.774;-0.352;2024-01-15T02:00:29;100840;;;-1;52
78843;BME280;70542;53.774;-0.352;2024-01-15T02:06:15;100830;;;-2;54
78843;BME280;70542;53.774;-0.352;2024-01-15T02:12:07;100820;;;-1;51
78843;BME280;70542;53.774;-0.352;2024-01-15T02:17:58;100830;;;-2;52
78843;BME280;70542;53.774;-0.352;2024-01-15T02:23:42;100820;;;-2;52
78843;BME280;70542;53.774;-0.352;2024-01-15T02:29:22;100810;;;-1;52
78843;BME280;70542;53.774;-0.352;2024-01-15T02:35:07;100810;;;-1;51
78843;BME280;70542;53.774;-0.352;2024-01-15T02:40:57;100810;;;-2;52
78843;BME280;70542;53.774;-0.352;2024-01-15T02:46:42;100810;;;-2;52
78843;BME280;70542;53.774;-0.352;2024-01-15T02:52:31;100810;;;-2;52
78843;BME280;70542;53.774;-0.352;2024-01-15T02:58:20;100800;;;-1;50
78843;BME280;70542;53.774;-0.352;2024-01-15T03:07:08;100800;;;-2;50
78843;BME280;70542;53.774;-0.352;2024-01-15T03:12:52;100800;;;-1;51
78843;BME280;70542;53.774;-0.352;2024-01-15T03:18:37;100790;;;-1;51
78843;BME280;70542;53.774;-0.352;2024-01-15T03:24:48;100790;;;-2;51
78843;BME280;70542;53.774;-0.352;2024-01-15T03:30:32;100780;;;-1;51
78843;BME280;70542;53.774;-0.352;2024-01-15T03:36:32;100790;;;-2;51
78843;BME280;70542;53.774;-0.352;2024-01-15T03:42:16;100780;;;-1;51
78843;BME280;70542;53.774;-0.352;2024-01-15T03:48:02;100780;;;-2;52
78843;BME280;70542;53.774;-0.352;2024-01-15T03:53:46;100780;;;-2;53
78843;BME280;70542;53.774;-0.352;2024-01-15T03:59:42;100780;;;-2;53
78843;BME280;70542;53.774;-0.352;2024-01-15T04:05:29;100780;;;-2;53
78843;BME280;70542;53.774;-0.352;2024-01-15T04:11:35;100770;;;-2;52
78843;BME280;70542;53.774;-0.352;2024-01-15T04:17:36;100760;;;-3;53
78843;BME280;70542;53.774;-0.352;2024-01-15T04:23:18;100770;;;-3;54
78843;BME280;70542;53.774;-0.352;2024-01-15T04:29:37;100770;;;-2;53
78843;BME280;70542;53.774;-0.352;2024-01-15T04:35:22;100760;;;-2;53
78843;BME280;70542;53.774;-0.352;2024-01-15T04:41:11;100760;;;-2;52
78843;BME280;70542;53.774;-0.352;2024-01-15T04:46:56;100760;;;-2;53
78843;BME280;70542;53.774;-0.352;2024-01-15T04:52:51;100760;;;-2;53
78843;BME280;70542;53.774;-0.352;2024-01-15T04:58:42;100760;;;-2;51
78843;BME280;70542;53.774;-0.352;2024-01-15T05:04:51;100760;;;-2;52
78843;BME280;70542;53.774;-0.352;2024-01-15T05:10:47;100750;;;-2;53
78843;BME280;70542;53.774;-0.352;2024-01-15T05:22:49;100750;;;-2;53
78843;BME280;70542;53.774;-0.352;2024-01-15T05:29:11;100760;;;-2;53
78843;BME280;70542;53.774;-0.352;2024-01-15T05:34:59;100750;;;-2;53
78843;BME280;70542;53.774;-0.352;2024-01-15T05:40:48;100760;;;-2;55
78843;BME280;70542;53.774;-0.352;2024-01-15T05:46:32;100750;;;-2;56
78843;BME280;70542;53.774;-0.352;2024-01-15T05:52:17;100760;;;-2;55
78843;BME280;70542;53.774;-0.352;2024-01-15T05:57:58;100750;;;-2;54
78843;BME280;70542;53.774;-0.352;2024-01-15T06:03:59;100760;;;-2;53
78843;BME280;70542;53.774;-0.352;2024-01-15T06:09:52;100760;;;-2;53
78843;BME280;70542;53.774;-0.352;2024-01-15T06:15:51;100740;;;-2;53
78843;BME280;70542;53.774;-0.352;2024-01-15T06:21:41;100750;;;-2;54
78843;BME280;70542;53.774;-0.352;2024-01-15T06:27:41;100760;;;-2;54
78843;BME280;70542;53.774;-0.352;2024-01-15T06:33:34;100750;;;-2;53
78843;BME280;70542;53.774;-0.352;2024-01-15T06:39:24;100740;;;-2;54
78843;BME280;70542;53.774;-0.352;2024-01-15T06:45:06;100750;;;-2;52
78843;BME280;70542;53.774;-0.352;2024-01-15T06:50:46;100750;;;-2;52
78843;BME280;70542;53.774;-0.352;2024-01-15T06:56:45;100770;;;-2;53
78843;BME280;70542;53.774;-0.352;2024-01-15T07:02:27;100770;;;-2;52
78843;BME280;70542;53.774;-0.352;2024-01-15T07:08:06;100780;;;-2;52
78843;BME280;70542;53.774;-0.352;2024-01-15T07:13:45;100780;;;-2;52
78843;BME280;70542;53.774;-0.352;2024-01-15T07:19:24;100780;;;-2;52
78843;BME280;70542;53.774;-0.352;2024-01-15T07:25:03;100770;;;-3;53
78843;BME280;70542;53.774;-0.352;2024-01-15T07:30:43;100780;;;-2;52
78843;BME280;70542;53.774;-0.352;2024-01-15T07:36:27;100790;;;-3;53
78843;BME280;70542;53.774;-0.352;2024-01-15T07:42:06;100800;;;-3;54
78843;BME280;70542;53.774;-0.352;2024-01-15T07:47:45;100810;;;-2;53
78843;BME280;70542;53.774;-0.352;2024-01-15T07:53:24;100810;;;-3;53
78843;BME280;70542;53.774;-0.352;2024-01-15T07:59:03;100820;;;-2;52
78843;BME280;70542;53.774;-0.352;2024-01-15T08:04:42;100830;;;-3;53
78843;BME280;70542;53.774;-0.352;2024-01-15T08:10:21;100840;;;-3;52
78843;BME280;70542;53.774;-0.352;2024-01-15T08:15:59;100850;;;-2;51
78843;BME280;70542;53.774;-0.352;2024-01-15T08:21:38;100860;;;-3;52
78843;BME280;70542;53.774;-0.352;2024-01-15T08:27:17;100850;;;-2;53
78843;BME280;70542;53.774;-0.352;2024-01-15T08:32:56;100860;;;-2;51
78843;BME280;70542;53.774;-0.352;2024-01-15T08:38:35;100870;;;-2;52
78843;BME280;70542;53.774;-0.352;2024-01-15T08:44:14;100870;;;-2;51
78843;BME280;70542;53.774;-0.352;2024-01-15T08:49:52;100870;;;-2;51
78843;BME280;70542;53.774;-0.352;2024-01-15T08:55:31;100890;;;-2;53
78843;BME280;70542;53.774;-0.352;2024-01-15T09:01:10;100880;;;-3;52
78843;BME280;70542;53.774;-0.352;2024-01-15T09:06:49;100880;;;-3;52
78843;BME280;70542;53.774;-0.352;2024-01-15T09:12:28;100890;;;-2;51
78843;BME280;70542;53.774;-0.352;2024-01-15T09:18:07;100900;;;-2;51
78843;BME280;70542;53.774;-0.352;2024-01-15T09:23:45;100890;;;-2;50
78843;BME280;70542;53.774;-0.352;2024-01-15T09:29:24;100900;;;-2;50
78843;BME280;70542;53.774;-0.352;2024-01-15T09:35:03;100910;;;-2;50
78843;BME280;70542;53.774;-0.352;2024-01-15T09:40:45;100920;;;-2;50
78843;BME280;70542;53.774;-0.352;2024-01-15T09:46:24;100930;;;-2;50
78843;BME280;70542;53.774;-0.352;2024-01-15T09:52:04;100920;;;-2;50
78843;BME280;70542;53.774;-0.352;2024-01-15T09:57:44;100930;;;-2;50
78843;BME280;70542;53.774;-0.352;2024-01-15T10:03:23;100930;;;-2;50
78843;BME280;70542;53.774;-0.352;2024-01-15T10:09:03;100920;;;-2;50
78843;BME280;70542;53.774;-0.352;2024-01-15T10:14:42;100920;;;-2;49
78843;BME280;70542;53.774;-0.352;2024-01-15T10:20:21;100920;;;-1;50
78843;BME280;70542;53.774;-0.352;2024-01-15T10:26:00;100930;;;-2;48
78843;BME280;70542;53.774;-0.352;2024-01-15T10:31:39;100930;;;-2;48
78843;BME280;70542;53.774;-0.352;2024-01-15T10:37:18;100940;;;-2;48
78843;BME280;70542;53.774;-0.352;2024-01-15T10:42:57;100950;;;-1;48
78843;BME280;70542;53.774;-0.352;2024-01-15T10:48:36;100950;;;-2;48
78843;BME280;70542;53.774;-0.352;2024-01-15T10:54:15;100970;;;-1;47
78843;BME280;70542;53.774;-0.352;2024-01-15T10:59:54;100970;;;-1;47
78843;BME280;70542;53.774;-0.352;2024-01-15T11:05:34;100980;;;-1;48
78843;BME280;70542;53.774;-0.352;2024-01-15T11:11:16;100980;;;-2;47
78843;BME280;70542;53.774;-0.352;2024-01-15T11:16:57;100990;;;-1;46
78843;BME280;70542;53.774;-0.352;2024-01-15T11:22:48;100980;;;-1;47
78843;BME280;70542;53.774;-0.352;2024-01-15T11:34:21;100970;;;-1;47
78843;BME280;70542;53.774;-0.352;2024-01-15T11:40:02;100980;;;-1;46
78843;BME280;70542;53.774;-0.352;2024-01-15T11:45:41;100990;;;-1;45
78843;BME280;70542;53.774;-0.352;2024-01-15T11:51:21;100990;;;-1;47
78843;BME280;70542;53.774;-0.352;2024-01-15T11:57:01;100990;;;-1;46
78843;BME280;70542;53.774;-0.352;2024-01-15T12:02:44;101000;;;-1;46
78843;BME280;70542;53.774;-0.352;2024-01-15T12:08:23;101000;;;-1;44
78843;BME280;70542;53.774;-0.352;2024-01-15T12:14:02;101000;;;0;44
78843;BME280;70542;53.774;-0.352;2024-01-15T12:19:46;101000;;;-1;45
78843;BME280;70542;53.774;-0.352;2024-01-15T12:25:25;100980;;;0;45
78843;BME280;70542;53.774;-0.352;2024-01-15T12:31:05;100990;;;-1;45
78843;BME280;70542;53.774;-0.352;2024-01-15T12:36:46;100990;;;-1;47
78843;BME280;70542;53.774;-0.352;2024-01-15T12:42:25;100980;;;0;45
78843;BME280;70542;53.774;-0.352;2024-01-15T12:48:06;100990;;;-1;46
78843;BME280;70542;53.774;-0.352;2024-01-15T12:53:50;101000;;;-1;45
78843;BME280;70542;53.774;-0.352;2024-01-15T12:59:28;101000;;;0;46
78843;BME280;70542;53.774;-0.352;2024-01-15T13:05:08;101000;;;0;45
78843;BME280;70542;53.774;-0.352;2024-01-15T13:10:47;101010;;;0;44
78843;BME280;70542;53.774;-0.352;2024-01-15T13:16:26;101020;;;0;44
78843;BME280;70542;53.774;-0.352;2024-01-15T13:22:04;101020;;;-1;45
78843;BME280;70542;53.774;-0.352;2024-01-15T13:27:44;101020;;;0;43
78843;BME280;70542;53.774;-0.352;2024-01-15T13:33:22;101020;;;0;44
78843;BME280;70542;53.774;-0.352;2024-01-15T13:39:01;101020;;;0;43
78843;BME280;70542;53.774;-0.352;2024-01-15T13:44:41;101010;;;0;43
78843;BME280;70542;53.774;-0.352;2024-01-15T13:50:20;101000;;;0;43
78843;BME280;70542;53.774;-0.352;2024-01-15T13:55:59;101010;;;-1;44
78843;BME280;70542;53.774;-0.352;2024-01-15T14:01:38;101020;;;0;44
78843;BME280;70542;53.774;-0.352;2024-01-15T14:07:16;101030;;;-1;44
78843;BME280;70542;53.774;-0.352;2024-01-15T14:13:00;101030;;;0;43
78843;BME280;70542;53.774;-0.352;2024-01-15T14:18:39;101040;;;0;43
78843;BME280;70542;53.774;-0.352;2024-01-15T14:24:23;101040;;;0;42
78843;BME280;70542;53.774;-0.352;2024-01-15T14:30:02;101040;;;0;42
78843;BME280;70542;53.774;-0.352;2024-01-15T14:35:40;101050;;;0;42
78843;BME280;70542;53.774;-0.352;2024-01-15T14:41:19;101050;;;0;40
78843;BME280;70542;53.774;-0.352;2024-01-15T14:46:58;101060;;;0;40
78843;BME280;70542;53.774;-0.352;2024-01-15T14:52:37;101070;;;0;40
78843;BME280;70542;53.774;-0.352;2024-01-15T14:58:16;101070;;;0;42
78843;BME280;70542;53.774;-0.352;2024-01-15T15:03:54;101070;;;0;41
78843;BME280;70542;53.774;-0.352;2024-01-15T15:09:33;101070;;;0;42
78843;BME280;70542;53.774;-0.352;2024-01-15T15:15:12;101070;;;0;42
78843;BME280;70542;53.774;-0.352;2024-01-15T15:20:51;101080;;;0;42
78843;BME280;70542;53.774;-0.352;2024-01-15T15:26:30;101080;;;0;42
78843;BME280;70542;53.774;-0.352;2024-01-15T15:32:08;101080;;;0;40
78843;BME280;70542;53.774;-0.352;2024-01-15T15:37:47;101080;;;-1;42
78843;BME280;70542;53.774;-0.352;2024-01-15T15:43:27;101080;;;0;43
78843;BME280;70542;53.774;-0.352;2024-01-15T15:49:06;101100;;;-1;43
78843;BME280;70542;53.774;-0.352;2024-01-15T15:54:45;101100;;;0;41
78843;BME280;70542;53.774;-0.352;2024-01-15T16:00:23;101100;;;0;42
78843;BME280;70542;53.774;-0.352;2024-01-15T16:06:03;101110;;;0;42
78843;BME280;70542;53.774;-0.352;2024-01-15T16:11:42;101110;;;0;42
78843;BME280;70542;53.774;-0.352;2024-01-15T16:17:21;101120;;;0;42
78843;BME280;70542;53.774;-0.352;2024-01-15T16:23:00;101120;;;-1;43
78843;BME280;70542;53.774;-0.352;2024-01-15T16:28:40;101130;;;-1;43
78843;BME280;70542;53.774;-0.352;2024-01-15T16:34:19;101130;;;0;43
78843;BME280;70542;53.774;-0.352;2024-01-15T16:39:58;101140;;;-1;44
78843;BME280;70542;53.774;-0.352;2024-01-15T16:45:37;101140;;;-1;44
78843;BME280;70542;53.774;-0.352;2024-01-15T16:51:16;101140;;;-1;44
78843;BME280;70542;53.774;-0.352;2024-01-15T16:57:00;101140;;;-1;43
78843;BME280;70542;53.774;-0.352;2024-01-15T17:02:40;101140;;;-1;44
78843;BME280;70542;53.774;-0.352;2024-01-15T17:08:18;101130;;;-1;44
78843;BME280;70542;53.774;-0.352;2024-01-15T17:13:57;101140;;;-1;44
78843;BME280;70542;53.774;-0.352;2024-01-15T17:19:36;101130;;;-1;44
78843;BME280;70542;53.774;-0.352;2024-01-15T17:25:15;101140;;;-1;43
78843;BME280;70542;53.774;-0.352;2024-01-15T17:30:54;101130;;;-1;44
78843;BME280;70542;53.774;-0.352;2024-01-15T17:36:33;101130;;;0;43
78843;BME280;70542;53.774;-0.352;2024-01-15T17:42:11;101130;;;0;42
78843;BME280;70542;53.774;-0.352;2024-01-15T17:47:50;101130;;;-1;43
78843;BME280;70542;53.774;-0.352;2024-01-15T17:53:29;101130;;;-1;45
78843;BME280;70542;53.774;-0.352;2024-01-15T17:59:07;101130;;;-1;46
78843;BME280;70542;53.774;-0.352;2024-01-15T18:04:46;101130;;;-2;46
78843;BME280;70542;53.774;-0.352;2024-01-15T18:10:25;101130;;;-1;43
78843;BME280;70542;53.774;-0.352;2024-01-15T18:16:05;101140;;;-1;45
78843;BME280;70542;53.774;-0.352;2024-01-15T18:21:44;101160;;;-1;43
78843;BME280;70542;53.774;-0.352;2024-01-15T18:27:22;101160;;;-1;44
78843;BME280;70542;53.774;-0.352;2024-01-15T18:33:01;101150;;;0;43
78843;BME280;70542;53.774;-0.352;2024-01-15T18:38:46;101150;;;-1;46
78843;BME280;70542;53.774;-0.352;2024-01-15T18:44:30;101150;;;-1;47
78843;BME280;70542;53.774;-0.352;2024-01-15T18:50:09;101150;;;-1;47
78843;BME280;70542;53.774;-0.352;2024-01-15T18:55:53;101160;;;-1;46
78843;BME280;70542;53.774;-0.352;2024-01-15T19:01:33;101160;;;-1;47
78843;BME280;70542;53.774;-0.352;2024-01-15T19:07:12;101160;;;-2;48
78843;BME280;70542;53.774;-0.352;2024-01-15T19:12:52;101160;;;-1;47
78843;BME280;70542;53.774;-0.352;2024-01-15T19:18:38;101160;;;-1;48
78843;BME280;70542;53.774;-0.352;2024-01-15T19:24:17;101170;;;-1;47
78843;BME280;70542;53.774;-0.352;2024-01-15T19:29:58;101170;;;-1;47
78843;BME280;70542;53.774;-0.352;2024-01-15T19:35:37;101170;;;-2;47
78843;BME280;70542;53.774;-0.352;2024-01-15T19:41:15;101180;;;-2;48
78843;BME280;70542;53.774;-0.352;2024-01-15T19:46:59;101170;;;-1;48
78843;BME280;70542;53.774;-0.352;2024-01-15T19:52:39;101160;;;-2;49
78843;BME280;70542;53.774;-0.352;2024-01-15T19:58:23;101160;;;-2;50
78843;BME280;70542;53.774;-0.352;2024-01-15T20:04:02;101170;;;-1;47
78843;BME280;70542;53.774;-0.352;2024-01-15T20:09:46;101180;;;-2;48
78843;BME280;70542;53.774;-0.352;2024-01-15T20:15:30;101180;;;-1;46
78843;BME280;70542;53.774;-0.352;2024-01-15T20:21:10;101180;;;-1;46
78843;BME280;70542;53.774;-0.352;2024-01-15T20:26:49;101170;;;-2;47
78843;BME280;70542;53.774;-0.352;2024-01-15T20:32:28;101170;;;-2;48
78843;BME280;70542;53.774;-0.352;2024-01-15T20:38:08;101180;;;-2;48
78843;BME280;70542;53.774;-0.352;2024-01-15T20:43:47;101170;;;-1;46
78843;BME280;70542;53.774;-0.352;2024-01-15T20:49:32;101170;;;-2;44
78843;BME280;70542;53.774;-0.352;2024-01-15T20:55:16;101170;;;0;43
78843;BME280;70542;53.774;-0.352;2024-01-15T21:01:01;101170;;;0;42
78843;BME280;70542;53.774;-0.352;2024-01-15T21:06:45;101170;;;-2;45
78843;BME280;70542;53.774;-0.352;2024-01-15T21:12:30;101160;;;-1;46
78843;BME280;70542;53.774;-0.352;2024-01-15T21:18:16;101160;;;-2;48
78843;BME280;70542;53.774;-0.352;2024-01-15T21:24:00;101160;;;-2;48
78843;BME280;70542;53.774;-0.352;2024-01-15T21:29:46;101160;;;-2;47
78843;BME280;70542;53.774;-0.352;2024-01-15T21:35:25;101160;;;-2;47
78843;BME280;70542;53.774;-0.352;2024-01-15T21:41:10;101170;;;-2;47
78843;BME280;70542;53.774;-0.352;2024-01-15T21:47:00;101170;;;-2;47
78843;BME280;70542;53.774;-0.352;2024-01-15T21:52:39;101180;;;-2;46
78843;BME280;70542;53.774;-0.352;2024-01-15T21:58:19;101170;;;-1;45
78843;BME280;70542;53.774;-0.352;2024-01-15T22:04:03;101160;;;-1;44
78843;BME280;70542;53.774;-0.352;2024-01-15T22:09:47;101160;;;-1;44
78843;BME280;70542;53.774;-0.352;2024-01-15T22:15:33;101170;;;0;43
78843;BME280;70542;53.774;-0.352;2024-01-15T22:21:21;101170;;;-1;44
78843;BME280;70542;53.774;-0.352;2024-01-15T22:27:02;101160;;;0;43
78843;BME280;70542;53.774;-0.352;2024-01-15T22:32:59;101160;;;-1;44
78843;BME280;70542;53.774;-0.352;2024-01-15T22:38:43;101160;;;-1;45
78843;BME280;70542;53.774;-0.352;2024-01-15T22:44:33;101160;;;-1;45
78843;BME280;70542;53.774;-0.352;2024-01-15T22:50:58;101160;;;0;42
78843;BME280;70542;53.774;-0.352;2024-01-15T22:56:44;101170;;;-1;45
78843;BME280;70542;53.774;-0.352;2024-01-15T23:02:44;101170;;;-1;46
78843;BME280;70542;53.774;-0.352;2024-01-15T23:08:23;101180;;;-1;46
78843;BME280;70542;53.774;-0.352;2024-01-15T23:14:07;101180;;;-1;45
78843;BME280;70542;53.774;-0.352;2024-01-15T23:19:49;101170;;;-2;45
78843;BME280;70542;53.774;-0.352;2024-01-15T23:25:28;101170;;;-1;45
78843;BME280;70542;53.774;-0.352;2024-01-15T23:31:12;101160;;;-1;44
78843;BME280;70542;53.774;-0.352;2024-01-15T23:36:52;101160;;;-1;45
78843;BME280;70542;53.774;-0.352;2024-01-15T23:42:36;101150;;;-1;45
78843;BME280;70542;53.774;-0.352;2024-01-15T23:48:19;101150;;;-1;45
78843;BME280;70542;53.774;-0.352;2024-01-15T23:53:58;101150;;;-2;46
78843;BME280;70542;53.774;-0.352;2024-01-15T23:59:37;101150;;;-1;46
